createdAt,value
2023-06-07T00:02:43.690Z,101193.66
2023-06-07T00:07:45.044Z,101202.19
2023-06-07T00:12:44.004Z,101190.75
2023-06-07T00:17:44.426Z,101186.13
2023-06-07T00:22:45.216Z,101190.63
2023-06-07T00:27:44.041Z,101195.53
2023-06-07T00:32:42.979Z,101191.13
2023-06-07T00:37:43.310Z,101190.47
2023-06-07T00:42:43.697Z,101184.81
2023-06-07T00:47:43.185Z,101184.09
2023-06-07T00:52:42.288Z,101179.94
2023-06-07T00:57:42.381Z,101167.03
2023-06-07T01:02:48.018Z,101163.34
2023-06-07T01:07:47.607Z,101151.38
2023-06-07T01:12:46.701Z,101152.44
2023-06-07T01:17:50.169Z,101148.66
2023-06-07T01:22:52.393Z,101155.09
2023-06-07T01:27:56.657Z,101150.25
2023-06-07T01:32:55.755Z,101157.88
2023-06-07T01:38:01.266Z,101146.59
2023-06-07T01:43:02.893Z,101153.91
2023-06-07T01:48:02.837Z,101158.47
2023-06-07T01:53:01.705Z,101156.16
2023-06-07T01:58:14.551Z,101145.41
2023-06-07T02:03:17.983Z,101141.50
2023-06-07T02:08:22.576Z,101140.06
2023-06-07T02:13:23.885Z,101152.69
2023-06-07T02:18:22.988Z,101157.50
2023-06-07T02:23:26.180Z,101161.41
2023-06-07T02:28:27.681Z,101168.66
2023-06-07T02:33:26.903Z,101162.13
2023-06-07T02:38:25.837Z,101162.13
2023-06-07T02:43:24.612Z,101165.63
2023-06-07T02:48:25.573Z,101159.47
2023-06-07T02:53:24.432Z,101161.84
2023-06-07T02:58:23.715Z,101164.81
2023-06-07T03:03:23.403Z,101156.06
2023-06-07T03:08:31.483Z,101148.28
2023-06-07T03:13:30.886Z,101156.34
2023-06-07T03:18:31.157Z,101155.81
2023-06-07T03:23:35.294Z,101158.94
2023-06-07T03:28:34.775Z,101155.28
2023-06-07T03:33:35.368Z,101167.50
2023-06-07T03:38:35.694Z,101165.22
2023-06-07T03:43:35.097Z,101162.84
2023-06-07T03:48:34.484Z,101159.97
2023-06-07T03:53:36.055Z,101160.44
2023-06-07T03:58:35.067Z,101163.22
2023-06-07T04:03:44.148Z,101166.84
2023-06-07T04:08:44.632Z,101161.66
2023-06-07T04:13:45.472Z,101163.25
2023-06-07T04:18:45.190Z,101163.19
2023-06-07T04:23:46.346Z,101183.94
2023-06-07T04:28:50.949Z,101183.09
2023-06-07T04:33:54.354Z,101177.88
2023-06-07T04:38:58.679Z,101172.78
2023-06-07T04:44:02.670Z,101170.56
2023-06-07T04:49:06.622Z,101176.16
2023-06-07T04:54:07.176Z,101165.72
2023-06-07T04:59:14.118Z,101166.69
2023-06-07T05:04:14.177Z,101172.59
2023-06-07T05:09:25.778Z,101188.56
2023-06-07T05:14:33.437Z,101182.53
2023-06-07T05:19:37.489Z,101180.84
2023-06-07T05:24:38.045Z,101182.22
2023-06-07T05:29:36.966Z,101179.78
2023-06-07T05:34:36.607Z,101177.47
2023-06-07T05:39:37.377Z,101177.59
2023-06-07T05:44:36.798Z,101180.03
2023-06-07T05:49:36.456Z,101176.75
2023-06-07T05:54:35.455Z,101178.94
2023-06-07T05:59:36.307Z,101181.88
2023-06-07T06:04:35.100Z,101189.34
2023-06-07T06:09:33.884Z,101196.56
2023-06-07T06:14:32.652Z,101188.38
2023-06-07T06:19:32.910Z,101188.81
2023-06-07T06:24:31.873Z,101190.38
2023-06-07T06:29:30.718Z,101195.72
2023-06-07T06:34:31.223Z,101181.63
2023-06-07T06:39:31.374Z,101191.31
2023-06-07T06:44:31.128Z,101194.13
2023-06-07T06:49:29.901Z,101195.66
2023-06-07T06:54:28.887Z,101199.78
2023-06-07T06:59:29.042Z,101191.69
2023-06-07T07:04:27.921Z,101198.50
2023-06-07T07:09:27.128Z,101195.19
2023-06-07T07:14:26.078Z,101187.09
2023-06-07T07:19:26.270Z,101177.94
2023-06-07T07:24:25.640Z,101180.81
2023-06-07T07:29:26.272Z,101190.25
2023-06-07T07:34:28.425Z,101189.28
2023-06-07T07:39:27.687Z,101191.25
2023-06-07T07:44:26.868Z,101189.44
2023-06-07T07:49:25.681Z,101192.78
2023-06-07T07:54:26.963Z,101188.91
2023-06-07T07:59:25.854Z,101189.16
2023-06-07T08:04:24.656Z,101192.44
2023-06-07T08:09:25.645Z,101194.09
2023-06-07T08:14:24.554Z,101190.06
2023-06-07T08:19:23.423Z,101182.28
2023-06-07T08:24:22.505Z,101173.16
2023-06-07T08:29:23.415Z,101173.75
2023-06-07T08:34:29.911Z,101164.16
2023-06-07T08:39:30.082Z,101169.16
2023-06-07T08:44:30.477Z,101173.59
2023-06-07T08:49:35.773Z,101176.41
2023-06-07T08:54:35.829Z,101158.69
2023-06-07T08:59:37.709Z,101161.19
2023-06-07T09:04:37.261Z,101155.81
2023-06-07T09:09:36.890Z,101160.47
2023-06-07T09:14:38.287Z,101149.09
2023-06-07T09:19:38.790Z,101164.84
2023-06-07T09:24:39.081Z,101145.25
2023-06-07T09:29:43.825Z,101139.28
2023-06-07T09:34:42.742Z,101140.59
2023-06-07T09:39:41.549Z,101140.25
2023-06-07T09:44:42.409Z,101133.03
2023-06-07T09:49:41.331Z,101136.16
2023-06-07T09:54:42.594Z,101150.19
2023-06-07T09:59:59.449Z,101135.66
2023-06-07T10:05:06.692Z,101131.13
2023-06-07T10:10:12.276Z,101135.22
2023-06-07T10:15:21.784Z,101133.41
2023-06-07T10:20:37.192Z,101117.75
2023-06-07T10:25:42.206Z,101112.00
2023-06-07T10:30:48.741Z,101101.75
2023-06-07T10:35:49.037Z,101116.47
2023-06-07T10:40:48.397Z,101105.47
2023-06-07T10:45:48.781Z,101094.94
2023-06-07T10:50:48.941Z,101100.03
2023-06-07T10:55:47.736Z,101099.69
2023-06-07T11:00:49.060Z,101092.88
2023-06-07T11:06:07.837Z,101092.56
2023-06-07T11:11:27.109Z,101083.09
2023-06-07T11:16:37.712Z,101073.78
2023-06-07T11:22:02.206Z,101073.84
2023-06-07T11:27:01.217Z,101069.94
2023-06-07T11:32:04.053Z,101055.06
2023-06-07T11:37:10.812Z,101061.41
2023-06-07T11:42:10.186Z,101055.28
2023-06-07T11:47:10.609Z,101050.28
2023-06-07T11:52:10.051Z,101036.78
2023-06-07T11:57:30.738Z,101028.69
2023-06-07T12:02:31.290Z,101040.34
2023-06-07T12:07:32.964Z,101033.00
2023-06-07T12:12:32.451Z,101031.25
2023-06-07T12:17:36.079Z,101022.44
2023-06-07T12:22:34.985Z,101020.16
2023-06-07T12:27:34.246Z,101021.22
2023-06-07T12:32:34.598Z,101015.66
2023-06-07T12:37:36.511Z,101013.00
2023-06-07T12:42:36.679Z,101011.94
2023-06-07T12:47:37.987Z,101002.94
2023-06-07T12:52:37.028Z,101001.81
2023-06-07T12:57:36.135Z,100983.97
2023-06-07T13:02:37.194Z,100983.97
2023-06-07T13:07:36.197Z,100978.03
2023-06-07T13:12:35.291Z,100969.38
2023-06-07T13:17:36.532Z,100971.75
2023-06-07T13:22:35.495Z,100967.88
2023-06-07T13:27:34.453Z,100965.41
2023-06-07T13:32:33.236Z,100953.28
2023-06-07T13:37:33.619Z,100949.16
2023-06-07T13:42:32.319Z,100946.28
2023-06-07T13:47:32.254Z,100948.19
2023-06-07T13:52:31.854Z,100943.78
2023-06-07T13:57:31.983Z,100941.00
2023-06-07T14:02:30.836Z,100944.09
2023-06-07T14:07:29.843Z,100938.13
2023-06-07T14:12:28.680Z,100943.16
2023-06-07T14:17:28.839Z,100929.13
2023-06-07T14:22:27.761Z,100934.78
2023-06-07T14:27:26.711Z,100928.94
2023-06-07T14:32:25.772Z,100931.66
2023-06-07T14:37:26.117Z,100933.84
2023-06-07T14:42:26.064Z,100921.03
2023-06-07T14:47:25.322Z,100925.28
2023-06-07T14:52:25.651Z,100916.22
2023-06-07T14:57:24.436Z,100916.63
2023-06-07T15:02:23.478Z,100916.09
2023-06-07T15:07:25.510Z,100910.63
2023-06-07T15:12:26.366Z,100909.69
2023-06-07T15:17:25.450Z,100903.94
2023-06-07T15:22:24.009Z,100912.97
2023-06-07T15:27:23.101Z,100911.72
2023-06-07T15:32:23.432Z,100915.06
2023-06-07T15:37:22.433Z,100926.63
2023-06-07T15:42:22.028Z,100916.72
2023-06-07T15:47:20.909Z,100923.66
2023-06-07T15:52:21.441Z,100910.59
2023-06-07T15:57:20.872Z,100918.44
2023-06-07T16:02:20.359Z,100914.34
2023-06-07T16:07:21.696Z,100913.22
2023-06-07T16:12:22.440Z,100920.09
2023-06-07T16:17:21.509Z,100911.53
2023-06-07T16:22:22.137Z,100904.25
2023-06-07T16:27:21.515Z,100902.72
2023-06-07T16:32:20.575Z,100903.28
2023-06-07T16:37:19.739Z,100910.94
2023-06-07T16:42:20.446Z,100922.91
2023-06-07T16:47:19.370Z,100924.03
2023-06-07T16:52:18.801Z,100916.97
2023-06-07T16:57:17.873Z,100913.22
2023-06-07T17:02:18.369Z,100912.94
2023-06-07T17:07:17.679Z,100913.03
2023-06-07T17:12:17.241Z,100910.94
2023-06-07T17:17:18.069Z,100909.72
2023-06-07T17:22:17.531Z,100909.25
2023-06-07T17:27:16.983Z,100912.41
2023-06-07T17:32:17.480Z,100915.72
2023-06-07T17:37:18.812Z,100917.34
2023-06-07T17:42:22.172Z,100925.53
2023-06-07T17:47:24.128Z,100930.66
2023-06-07T17:52:23.881Z,100930.09
2023-06-07T17:57:23.296Z,100927.41
2023-06-07T18:02:23.650Z,100939.91
2023-06-07T18:07:22.498Z,100942.78
2023-06-07T18:12:21.541Z,100940.25
2023-06-07T18:17:20.684Z,100936.97
2023-06-07T18:22:21.090Z,100957.91
2023-06-07T18:27:20.414Z,100963.06
2023-06-07T18:32:19.761Z,100961.16
2023-06-07T18:37:18.632Z,100970.56
2023-06-07T18:42:19.317Z,100970.66
2023-06-07T18:47:18.850Z,100977.25
2023-06-07T18:52:17.939Z,100989.19
2023-06-07T18:57:18.906Z,100985.31
2023-06-07T19:02:18.536Z,100989.03
2023-06-07T19:07:17.639Z,100996.47
2023-06-07T19:12:16.427Z,101001.06
2023-06-07T19:17:16.721Z,101000.53
2023-06-07T19:22:32.014Z,101009.03
2023-06-07T19:27:31.908Z,101012.06
2023-06-07T19:32:41.128Z,101013.25
2023-06-07T19:37:40.241Z,101020.34
2023-06-07T19:42:40.214Z,101025.59
2023-06-07T19:47:40.846Z,101019.53
2023-06-07T19:52:43.078Z,101028.81
2023-06-07T19:57:42.263Z,101026.53
2023-06-07T20:02:47.844Z,101037.97
2023-06-07T20:07:47.265Z,101043.94
2023-06-07T20:12:46.158Z,101042.06
2023-06-07T20:17:46.325Z,101043.50
2023-06-07T20:22:45.395Z,101041.53
2023-06-07T20:27:47.792Z,101047.09
2023-06-07T20:32:48.097Z,101051.72
2023-06-07T20:37:47.792Z,101054.69
2023-06-07T20:42:47.217Z,101051.25
2023-06-07T20:47:50.145Z,101054.81
2023-06-07T20:52:50.211Z,101052.72
2023-06-07T20:57:49.045Z,101051.44
2023-06-07T21:02:49.428Z,101054.22
2023-06-07T21:07:48.329Z,101061.28
2023-06-07T21:12:47.552Z,101051.25
2023-06-07T21:17:46.588Z,101053.19
2023-06-07T21:22:48.419Z,101055.88
2023-06-07T21:27:47.220Z,101049.75
2023-06-07T21:32:46.149Z,101051.34
2023-06-07T21:37:46.382Z,101054.47
2023-06-07T21:42:45.250Z,101048.09
2023-06-07T21:47:45.111Z,101044.06
2023-06-07T21:52:43.862Z,101046.03
2023-06-07T21:57:44.674Z,101039.03
2023-06-07T22:02:43.738Z,101032.00
2023-06-07T22:07:42.647Z,101029.63
2023-06-07T22:12:41.978Z,101038.91
2023-06-07T22:17:43.455Z,101029.56
2023-06-07T22:22:42.317Z,101031.50
2023-06-07T22:27:42.519Z,101026.41
2023-06-07T22:32:45.488Z,101021.69
2023-06-07T22:37:44.396Z,101012.38
2023-06-07T22:42:43.297Z,101016.94
2023-06-07T22:47:44.227Z,101015.00
2023-06-07T22:52:45.481Z,101008.47
2023-06-07T22:57:45.047Z,101009.94
2023-06-07T23:02:49.067Z,101004.97
2023-06-07T23:07:50.236Z,100998.38
2023-06-07T23:12:51.548Z,100999.78
2023-06-07T23:17:54.137Z,100997.25
2023-06-07T23:22:53.310Z,100996.84
2023-06-07T23:27:54.805Z,100999.34
2023-06-07T23:32:57.408Z,100986.84
2023-06-07T23:37:57.704Z,100985.56
2023-06-07T23:42:57.694Z,100974.88
2023-06-07T23:48:02.679Z,100982.03
2023-06-07T23:53:04.864Z,100981.19
2023-06-07T23:58:06.725Z,100982.75
